sensor_id;sensor_type;location;lat;lon;timestamp;temperature;humidity
17202;DHT22;8717;53.588;10.176;2023-07-29T00:00:42;18.00;99.90
17202;DHT22;8717;53.588;10.176;2023-07-29T00:03:09;18.00;99.90
17202;DHT22;8717;53.588;10.176;2023-07-29T00:05:36;17.90;99.90
17202;DHT22;8717;53.588;10.176;2023-07-29T00:08:03;17.90;99.90
17202;DHT22;8717;53.588;10.176;2023-07-29T00:10:36;17.80;99.90
17202;DHT22;8717;53.588;10.176;2023-07-29T00:13:03;17.70;99.90
17202;DHT22;8717;53.588;10.176;2023-07-29T00:15:30;17.70;99.90
17202;DHT22;8717;53.588;10.176;2023-07-29T00:17:57;17.60;99.90
17202;DHT22;8717;53.588;10.176;2023-07-29T00:20:23;17.50;99.90
17202;DHT22;8717;53.588;10.176;2023-07-29T00:22:50;17.40;99.90
17202;DHT22;8717;53.588;10.176;2023-07-29T00:25:19;17.40;99.90
17202;DHT22;8717;53.588;10.176;2023-07-29T00:27:47;17.30;99.90
17202;DHT22;8717;53.588;10.176;2023-07-29T00:30:14;17.20;99.90
17202;DHT22;8717;53.588;10.176;2023-07-29T00:32:42;17.10;99.90
17202;DHT22;8717;53.588;10.176;2023-07-29T00:35:09;17.10;99.90
17202;DHT22;8717;53.588;10.176;2023-07-29T00:37:36;17.00;99.90
17202;DHT22;8717;53.588;10.176;2023-07-29T00:40:15;17.00;99.90
17202;DHT22;8717;53.588;10.176;2023-07-29T00:42:43;16.90;99.90
17202;DHT22;8717;53.588;10.176;2023-07-29T00:45:12;16.90;99.90
17202;DHT22;8717;53.588;10.176;2023-07-29T00:47:39;16.80;99.90
17202;DHT22;8717;53.588;10.176;2023-07-29T00:50:07;16.80;99.90
17202;DHT22;8717;53.588;10.176;2023-07-29T00:52:35;16.70;99.90
17202;DHT22;8717;53.588;10.176;2023-07-29T00:55:01;16.70;99.90
17202;DHT22;8717;53.588;10.176;2023-07-29T00:57:30;16.70;99.90
17202;DHT22;8717;53.588;10.176;2023-07-29T00:59:57;16.60;99.90
17202;DHT22;8717;53.588;10.176;2023-07-29T01:02:26;16.60;99.90
17202;DHT22;8717;53.588;10.176;2023-07-29T01:04:53;16.60;99.90
17202;DHT22;8717;53.588;10.176;2023-07-29T01:07:25;16.50;99.90
17202;DHT22;8717;53.588;10.176;2023-07-29T01:09:56;16.50;99.90
17202;DHT22;8717;53.588;10.176;2023-07-29T01:12:27;16.50;99.90
17202;DHT22;8717;53.588;10.176;2023-07-29T01:15:03;16.40;99.90
17202;DHT22;8717;53.588;10.176;2023-07-29T01:17:37;16.50;99.90
17202;DHT22;8717;53.588;10.176;2023-07-29T01:20:08;16.40;99.90
17202;DHT22;8717;53.588;10.176;2023-07-29T01:22:37;16.40;99.90
17202;DHT22;8717;53.588;10.176;2023-07-29T01:25:07;16.50;99.90
17202;DHT22;8717;53.588;10.176;2023-07-29T01:27:34;16.50;99.90
17202;DHT22;8717;53.588;10.176;2023-07-29T01:30:02;16.50;99.90
17202;DHT22;8717;53.588;10.176;2023-07-29T01:32:34;16.50;99.90
17202;DHT22;8717;53.588;10.176;2023-07-29T01:35:06;16.50;99.90
17202;DHT22;8717;53.588;10.176;2023-07-29T01:37:35;16.50;99.90
17202;DHT22;8717;53.588;10.176;2023-07-29T01:40:07;16.60;99.90
17202;DHT22;8717;53.588;10.176;2023-07-29T01:42:35;16.70;99.90
17202;DHT22;8717;53.588;10.176;2023-07-29T01:45:02;16.70;99.90
17202;DHT22;8717;53.588;10.176;2023-07-29T01:47:29;16.70;99.90
17202;DHT22;8717;53.588;10.176;2023-07-29T01:49:56;16.80;99.90
17202;DHT22;8717;53.588;10.176;2023-07-29T01:52:23;16.80;99.90
17202;DHT22;8717;53.588;10.176;2023-07-29T01:54:50;16.90;99.90
17202;DHT22;8717;53.588;10.176;2023-07-29T01:57:18;16.90;99.90
17202;DHT22;8717;53.588;10.176;2023-07-29T01:59:45;17.00;99.90
17202;DHT22;8717;53.588;10.176;2023-07-29T02:02:12;17.00;99.90
17202;DHT22;8717;53.588;10.176;2023-07-29T02:04:38;17.00;99.90
17202;DHT22;8717;53.588;10.176;2023-07-29T02:07:05;17.10;99.90
17202;DHT22;8717;53.588;10.176;2023-07-29T02:09:32;17.10;99.90
17202;DHT22;8717;53.588;10.176;2023-07-29T02:11:58;17.10;99.90
17202;DHT22;8717;53.588;10.176;2023-07-29T02:14:27;17.20;99.90
17202;DHT22;8717;53.588;10.176;2023-07-29T02:16:53;17.20;99.90
17202;DHT22;8717;53.588;10.176;2023-07-29T02:19:20;17.20;99.90
17202;DHT22;8717;53.588;10.176;2023-07-29T02:21:47;17.20;99.90
17202;DHT22;8717;53.588;10.176;2023-07-29T02:24:14;17.20;99.90
17202;DHT22;8717;53.588;10.176;2023-07-29T02:26:41;17.20;99.90
17202;DHT22;8717;53.588;10.176;2023-07-29T02:29:08;17.20;99.90
17202;DHT22;8717;53.588;10.176;2023-07-29T02:31:36;17.10;99.90
17202;DHT22;8717;53.588;10.176;2023-07-29T02:34:03;17.10;99.90
17202;DHT22;8717;53.588;10.176;2023-07-29T02:36:30;17.10;99.90
17202;DHT22;8717;53.588;10.176;2023-07-29T02:38:58;17.10;99.90
17202;DHT22;8717;53.588;10.176;2023-07-29T02:41:24;17.00;99.90
17202;DHT22;8717;53.588;10.176;2023-07-29T02:43:51;17.00;99.90
17202;DHT22;8717;53.588;10.176;2023-07-29T02:46:18;17.00;99.90
17202;DHT22;8717;53.588;10.176;2023-07-29T02:48:46;17.00;99.90
17202;DHT22;8717;53.588;10.176;2023-07-29T02:51:13;17.00;99.90
17202;DHT22;8717;53.588;10.176;2023-07-29T02:53:39;17.00;99.90
17202;DHT22;8717;53.588;10.176;2023-07-29T02:56:06;17.00;99.90
17202;DHT22;8717;53.588;10.176;2023-07-29T02:58:35;17.00;99.90
17202;DHT22;8717;53.588;10.176;2023-07-29T03:01:03;16.90;99.90
17202;DHT22;8717;53.588;10.176;2023-07-29T03:03:30;16.90;99.90
17202;DHT22;8717;53.588;10.176;2023-07-29T03:06:01;16.90;99.90
17202;DHT22;8717;53.588;10.176;2023-07-29T03:08:29;16.90;99.90
17202;DHT22;8717;53.588;10.176;2023-07-29T03:10:56;16.90;99.90
17202;DHT22;8717;53.588;10.176;2023-07-29T03:13:23;16.90;99.90
17202;DHT22;8717;53.588;10.176;2023-07-29T03:15:51;16.90;99.90
17202;DHT22;8717;53.588;10.176;2023-07-29T03:18:17;16.90;99.90
17202;DHT22;8717;53.588;10.176;2023-07-29T03:20:44;16.90;99.90
17202;DHT22;8717;53.588;10.176;2023-07-29T03:23:13;16.90;99.90
17202;DHT22;8717;53.588;10.176;2023-07-29T03:25:39;16.90;99.90
17202;DHT22;8717;53.588;10.176;2023-07-29T03:28:06;16.90;99.90
17202;DHT22;8717;53.588;10.176;2023-07-29T03:30:33;16.90;99.90
17202;DHT22;8717;53.588;10.176;2023-07-29T03:32:59;16.80;99.90
17202;DHT22;8717;53.588;10.176;2023-07-29T03:35:26;16.80;99.90
17202;DHT22;8717;53.588;10.176;2023-07-29T03:37:53;16.80;99.90
17202;DHT22;8717;53.588;10.176;2023-07-29T03:40:21;16.80;99.90
17202;DHT22;8717;53.588;10.176;2023-07-29T03:42:48;16.70;99.90
17202;DHT22;8717;53.588;10.176;2023-07-29T03:45:15;16.70;99.90
17202;DHT22;8717;53.588;10.176;2023-07-29T03:47:42;16.70;99.90
17202;DHT22;8717;53.588;10.176;2023-07-29T03:50:09;16.70;99.90
17202;DHT22;8717;53.588;10.176;2023-07-29T03:52:36;16.70;99.90
17202;DHT22;8717;53.588;10.176;2023-07-29T03:55:03;16.70;99.90
17202;DHT22;8717;53.588;10.176;2023-07-29T03:57:31;16.70;99.90
17202;DHT22;8717;53.588;10.176;2023-07-29T03:59:58;16.70;99.90
17202;DHT22;8717;53.588;10.176;2023-07-29T04:02:25;16.70;99.90
17202;DHT22;8717;53.588;10.176;2023-07-29T04:04:51;16.70;99.90
17202;DHT22;8717;53.588;10.176;2023-07-29T04:07:18;16.70;99.90
17202;DHT22;8717;53.588;10.176;2023-07-29T04:09:45;16.70;99.90
17202;DHT22;8717;53.588;10.176;2023-07-29T04:12:12;16.70;99.90
17202;DHT22;8717;53.588;10.176;2023-07-29T04:14:40;16.70;99.90
17202;DHT22;8717;53.588;10.176;2023-07-29T04:17:07;16.70;99.90
17202;DHT22;8717;53.588;10.176;2023-07-29T04:19:34;16.80;99.90
17202;DHT22;8717;53.588;10.176;2023-07-29T04:22:01;16.80;99.90
17202;DHT22;8717;53.588;10.176;2023-07-29T04:24:28;16.90;99.90
17202;DHT22;8717;53.588;10.176;2023-07-29T04:26:55;16.90;99.90
17202;DHT22;8717;53.588;10.176;2023-07-29T04:29:22;17.00;99.90
17202;DHT22;8717;53.588;10.176;2023-07-29T04:31:50;17.00;99.90
17202;DHT22;8717;53.588;10.176;2023-07-29T04:34:18;17.10;99.90
17202;DHT22;8717;53.588;10.176;2023-07-29T04:36:45;17.10;99.90
17202;DHT22;8717;53.588;10.176;2023-07-29T04:39:12;17.10;99.90
17202;DHT22;8717;53.588;10.176;2023-07-29T04:41:39;17.10;99.90
17202;DHT22;8717;53.588;10.176;2023-07-29T04:44:06;17.20;99.90
17202;DHT22;8717;53.588;10.176;2023-07-29T04:46:33;17.20;99.90
17202;DHT22;8717;53.588;10.176;2023-07-29T04:49:02;17.20;99.90
17202;DHT22;8717;53.588;10.176;2023-07-29T04:51:29;17.20;99.90
17202;DHT22;8717;53.588;10.176;2023-07-29T04:53:57;17.30;99.90
17202;DHT22;8717;53.588;10.176;2023-07-29T04:56:24;17.30;99.90
17202;DHT22;8717;53.588;10.176;2023-07-29T04:58:51;17.30;99.90
17202;DHT22;8717;53.588;10.176;2023-07-29T05:01:18;17.30;99.90
17202;DHT22;8717;53.588;10.176;2023-07-29T05:03:45;17.40;99.90
17202;DHT22;8717;53.588;10.176;2023-07-29T05:06:14;17.40;99.90
17202;DHT22;8717;53.588;10.176;2023-07-29T05:08:41;17.40;99.90
17202;DHT22;8717;53.588;10.176;2023-07-29T05:11:08;17.40;99.90
17202;DHT22;8717;53.588;10.176;2023-07-29T05:13:34;17.40;99.90
17202;DHT22;8717;53.588;10.176;2023-07-29T05:16:01;17.50;99.90
17202;DHT22;8717;53.588;10.176;2023-07-29T05:18:28;17.50;99.90
17202;DHT22;8717;53.588;10.176;2023-07-29T05:20:55;17.60;99.90
17202;DHT22;8717;53.588;10.176;2023-07-29T05:23:24;17.60;99.90
17202;DHT22;8717;53.588;10.176;2023-07-29T05:25:50;17.60;99.90
17202;DHT22;8717;53.588;10.176;2023-07-29T05:28:17;17.70;99.90
17202;DHT22;8717;53.588;10.176;2023-07-29T05:30:44;17.70;99.90
17202;DHT22;8717;53.588;10.176;2023-07-29T05:33:11;17.80;99.90
17202;DHT22;8717;53.588;10.176;2023-07-29T05:35:39;17.80;99.90
17202;DHT22;8717;53.588;10.176;2023-07-29T05:38:06;17.90;99.90
17202;DHT22;8717;53.588;10.176;2023-07-29T05:40:35;17.90;99.90
17202;DHT22;8717;53.588;10.176;2023-07-29T05:43:03;17.90;99.90
17202;DHT22;8717;53.588;10.176;2023-07-29T05:45:30;18.00;99.90
17202;DHT22;8717;53.588;10.176;2023-07-29T05:47:57;18.10;99.90
17202;DHT22;8717;53.588;10.176;2023-07-29T05:50:24;18.10;99.90
17202;DHT22;8717;53.588;10.176;2023-07-29T05:52:52;18.20;99.90
17202;DHT22;8717;53.588;10.176;2023-07-29T05:55:19;18.20;99.90
17202;DHT22;8717;53.588;10.176;2023-07-29T05:57:48;18.30;99.90
17202;DHT22;8717;53.588;10.176;2023-07-29T06:00:16;18.40;99.90
17202;DHT22;8717;53.588;10.176;2023-07-29T06:02:43;18.50;99.90
17202;DHT22;8717;53.588;10.176;2023-07-29T06:05:15;18.60;99.90
17202;DHT22;8717;53.588;10.176;2023-07-29T06:07:42;18.70;99.90
17202;DHT22;8717;53.588;10.176;2023-07-29T06:10:12;18.80;99.90
17202;DHT22;8717;53.588;10.176;2023-07-29T06:12:38;18.90;99.90
17202;DHT22;8717;53.588;10.176;2023-07-29T06:15:07;19.00;99.90
17202;DHT22;8717;53.588;10.176;2023-07-29T06:17:34;19.00;99.90
17202;DHT22;8717;53.588;10.176;2023-07-29T06:20:01;19.00;99.90
17202;DHT22;8717;53.588;10.176;2023-07-29T06:22:28;18.90;99.90
17202;DHT22;8717;53.588;10.176;2023-07-29T06:24:55;18.90;99.90
17202;DHT22;8717;53.588;10.176;2023-07-29T06:27:22;18.90;99.90
17202;DHT22;8717;53.588;10.176;2023-07-29T06:29:50;18.90;99.90
17202;DHT22;8717;53.588;10.176;2023-07-29T06:32:18;18.90;99.90
17202;DHT22;8717;53.588;10.176;2023-07-29T06:34:44;18.90;99.90
17202;DHT22;8717;53.588;10.176;2023-07-29T06:37:11;18.90;99.90
17202;DHT22;8717;53.588;10.176;2023-07-29T06:39:38;19.00;99.90
17202;DHT22;8717;53.588;10.176;2023-07-29T06:42:05;19.00;99.90
17202;DHT22;8717;53.588;10.176;2023-07-29T06:44:32;19.10;99.90
17202;DHT22;8717;53.588;10.176;2023-07-29T06:46:59;19.10;99.90
17202;DHT22;8717;53.588;10.176;2023-07-29T06:49:27;19.10;99.90
17202;DHT22;8717;53.588;10.176;2023-07-29T06:51:54;19.20;99.90
17202;DHT22;8717;53.588;10.176;2023-07-29T06:54:24;19.30;99.90
17202;DHT22;8717;53.588;10.176;2023-07-29T06:56:51;19.40;99.90
17202;DHT22;8717;53.588;10.176;2023-07-29T06:59:17;19.40;99.90
17202;DHT22;8717;53.588;10.176;2023-07-29T07:01:44;19.50;99.90
17202;DHT22;8717;53.588;10.176;2023-07-29T07:04:11;19.60;99.90
17202;DHT22;8717;53.588;10.176;2023-07-29T07:06:39;19.70;99.90
17202;DHT22;8717;53.588;10.176;2023-07-29T07:09:05;19.80;99.90
17202;DHT22;8717;53.588;10.176;2023-07-29T07:11:32;20.00;99.90
17202;DHT22;8717;53.588;10.176;2023-07-29T07:13:59;20.10;99.90
17202;DHT22;8717;53.588;10.176;2023-07-29T07:16:26;20.20;99.90
17202;DHT22;8717;53.588;10.176;2023-07-29T07:18:54;20.30;99.90
17202;DHT22;8717;53.588;10.176;2023-07-29T07:21:21;20.40;99.90
17202;DHT22;8717;53.588;10.176;2023-07-29T07:23:50;20.40;99.90
17202;DHT22;8717;53.588;10.176;2023-07-29T07:26:17;20.40;99.90
17202;DHT22;8717;53.588;10.176;2023-07-29T07:28:43;20.30;99.90
17202;DHT22;8717;53.588;10.176;2023-07-29T07:31:10;20.20;99.90
17202;DHT22;8717;53.588;10.176;2023-07-29T07:33:37;20.20;99.90
17202;DHT22;8717;53.588;10.176;2023-07-29T07:36:04;20.10;99.90
17202;DHT22;8717;53.588;10.176;2023-07-29T07:38:30;20.00;99.90
17202;DHT22;8717;53.588;10.176;2023-07-29T07:40:58;19.90;99.90
17202;DHT22;8717;53.588;10.176;2023-07-29T07:43:25;19.90;99.90
17202;DHT22;8717;53.588;10.176;2023-07-29T07:45:58;19.80;99.90
17202;DHT22;8717;53.588;10.176;2023-07-29T07:48:25;19.90;99.90
17202;DHT22;8717;53.588;10.176;2023-07-29T07:50:51;19.90;99.90
17202;DHT22;8717;53.588;10.176;2023-07-29T07:53:18;20.00;99.90
17202;DHT22;8717;53.588;10.176;2023-07-29T07:55:45;20.00;99.90
17202;DHT22;8717;53.588;10.176;2023-07-29T07:58:13;20.10;99.90
17202;DHT22;8717;53.588;10.176;2023-07-29T08:00:40;20.20;99.90
17202;DHT22;8717;53.588;10.176;2023-07-29T08:03:07;20.20;99.90
17202;DHT22;8717;53.588;10.176;2023-07-29T08:05:33;20.20;99.90
17202;DHT22;8717;53.588;10.176;2023-07-29T08:08:00;20.30;99.90
17202;DHT22;8717;53.588;10.176;2023-07-29T08:10:27;20.40;99.90
17202;DHT22;8717;53.588;10.176;2023-07-29T08:12:54;20.40;99.90
17202;DHT22;8717;53.588;10.176;2023-07-29T08:15:22;20.50;99.90
17202;DHT22;8717;53.588;10.176;2023-07-29T08:17:48;20.50;99.90
17202;DHT22;8717;53.588;10.176;2023-07-29T08:20:15;20.50;99.90
17202;DHT22;8717;53.588;10.176;2023-07-29T08:22:42;20.60;99.90
17202;DHT22;8717;53.588;10.176;2023-07-29T08:25:09;20.60;99.90
17202;DHT22;8717;53.588;10.176;2023-07-29T08:27:35;20.70;99.90
17202;DHT22;8717;53.588;10.176;2023-07-29T08:30:02;20.80;99.90
17202;DHT22;8717;53.588;10.176;2023-07-29T08:32:30;20.80;99.90
17202;DHT22;8717;53.588;10.176;2023-07-29T08:34:57;20.80;99.90
17202;DHT22;8717;53.588;10.176;2023-07-29T08:37:24;20.80;99.90
17202;DHT22;8717;53.588;10.176;2023-07-29T08:39:52;20.80;99.90
17202;DHT22;8717;53.588;10.176;2023-07-29T08:42:19;20.80;99.90
17202;DHT22;8717;53.588;10.176;2023-07-29T08:44:49;20.80;99.90
17202;DHT22;8717;53.588;10.176;2023-07-29T08:47:16;20.90;99.90
17202;DHT22;8717;53.588;10.176;2023-07-29T08:49:45;20.80;99.90
17202;DHT22;8717;53.588;10.176;2023-07-29T08:52:14;20.80;99.90
17202;DHT22;8717;53.588;10.176;2023-07-29T08:54:41;20.80;99.90
17202;DHT22;8717;53.588;10.176;2023-07-29T08:57:08;20.90;99.90
17202;DHT22;8717;53.588;10.176;2023-07-29T08:59:34;20.90;99.90
17202;DHT22;8717;53.588;10.176;2023-07-29T09:02:01;21.00;99.90
17202;DHT22;8717;53.588;10.176;2023-07-29T09:04:28;21.10;99.90
17202;DHT22;8717;53.588;10.176;2023-07-29T09:06:56;21.20;99.90
17202;DHT22;8717;53.588;10.176;2023-07-29T09:09:24;21.30;99.90
17202;DHT22;8717;53.588;10.176;2023-07-29T09:11:51;21.50;99.90
17202;DHT22;8717;53.588;10.176;2023-07-29T09:14:18;21.60;99.90
17202;DHT22;8717;53.588;10.176;2023-07-29T09:16:46;21.80;99.90
17202;DHT22;8717;53.588;10.176;2023-07-29T09:19:13;21.90;99.90
17202;DHT22;8717;53.588;10.176;2023-07-29T09:21:40;22.00;99.90
17202;DHT22;8717;53.588;10.176;2023-07-29T09:24:08;22.10;99.90
17202;DHT22;8717;53.588;10.176;2023-07-29T09:26:35;22.30;99.90
17202;DHT22;8717;53.588;10.176;2023-07-29T09:29:02;22.40;99.90
17202;DHT22;8717;53.588;10.176;2023-07-29T09:31:29;22.60;99.90
17202;DHT22;8717;53.588;10.176;2023-07-29T09:33:57;22.80;99.90
17202;DHT22;8717;53.588;10.176;2023-07-29T09:36:24;23.00;99.90
17202;DHT22;8717;53.588;10.176;2023-07-29T09:38:55;23.20;99.90
17202;DHT22;8717;53.588;10.176;2023-07-29T09:41:26;23.40;99.90
17202;DHT22;8717;53.588;10.176;2023-07-29T09:43:57;23.60;99.90
17202;DHT22;8717;53.588;10.176;2023-07-29T09:46:25;24.00;99.90
17202;DHT22;8717;53.588;10.176;2023-07-29T09:48:53;24.30;99.90
17202;DHT22;8717;53.588;10.176;2023-07-29T09:51:21;24.60;99.90
17202;DHT22;8717;53.588;10.176;2023-07-29T09:53:50;24.90;99.90
17202;DHT22;8717;53.588;10.176;2023-07-29T09:56:18;25.10;99.90
17202;DHT22;8717;53.588;10.176;2023-07-29T09:58:51;25.40;99.90
17202;DHT22;8717;53.588;10.176;2023-07-29T10:01:18;25.60;99.90
17202;DHT22;8717;53.588;10.176;2023-07-29T10:03:45;25.70;99.90
17202;DHT22;8717;53.588;10.176;2023-07-29T10:06:12;25.80;99.90
17202;DHT22;8717;53.588;10.176;2023-07-29T10:08:40;25.90;99.90
17202;DHT22;8717;53.588;10.176;2023-07-29T10:11:09;26.00;99.90
17202;DHT22;8717;53.588;10.176;2023-07-29T10:13:37;26.00;99.90
17202;DHT22;8717;53.588;10.176;2023-07-29T10:16:05;26.20;99.90
17202;DHT22;8717;53.588;10.176;2023-07-29T10:18:33;26.40;99.90
17202;DHT22;8717;53.588;10.176;2023-07-29T10:21:00;26.60;99.90
17202;DHT22;8717;53.588;10.176;2023-07-29T10:23:38;26.90;99.90
17202;DHT22;8717;53.588;10.176;2023-07-29T10:26:10;27.20;99.90
17202;DHT22;8717;53.588;10.176;2023-07-29T10:28:40;27.50;99.90
17202;DHT22;8717;53.588;10.176;2023-07-29T10:31:08;27.80;99.90
17202;DHT22;8717;53.588;10.176;2023-07-29T10:33:36;27.90;99.90
17202;DHT22;8717;53.588;10.176;2023-07-29T10:36:04;28.10;99.90
17202;DHT22;8717;53.588;10.176;2023-07-29T10:38:31;28.20;99.90
17202;DHT22;8717;53.588;10.176;2023-07-29T10:40:58;28.40;99.90
17202;DHT22;8717;53.588;10.176;2023-07-29T10:43:27;28.40;99.60
17202;DHT22;8717;53.588;10.176;2023-07-29T10:45:56;28.40;99.80
17202;DHT22;8717;53.588;10.176;2023-07-29T10:48:44;28.20;99.10
17202;DHT22;8717;53.588;10.176;2023-07-29T10:51:24;28.00;98.00
17202;DHT22;8717;53.588;10.176;2023-07-29T10:53:52;27.80;98.50
17202;DHT22;8717;53.588;10.176;2023-07-29T10:56:26;27.60;99.90
17202;DHT22;8717;53.588;10.176;2023-07-29T10:58:55;27.50;99.60
17202;DHT22;8717;53.588;10.176;2023-07-29T11:01:26;27.40;99.60
17202;DHT22;8717;53.588;10.176;2023-07-29T11:04:26;27.50;99.60
17202;DHT22;8717;53.588;10.176;2023-07-29T11:07:21;27.60;99.00
17202;DHT22;8717;53.588;10.176;2023-07-29T11:09:55;27.80;99.20
17202;DHT22;8717;53.588;10.176;2023-07-29T11:12:40;27.80;98.50
17202;DHT22;8717;53.588;10.176;2023-07-29T11:15:17;27.70;98.20
17202;DHT22;8717;53.588;10.176;2023-07-29T11:17:46;27.50;98.10
17202;DHT22;8717;53.588;10.176;2023-07-29T11:20:15;27.40;98.90
17202;DHT22;8717;53.588;10.176;2023-07-29T11:22:42;27.20;98.70
17202;DHT22;8717;53.588;10.176;2023-07-29T11:25:10;27.10;98.90
17202;DHT22;8717;53.588;10.176;2023-07-29T11:27:37;27.00;99.20
17202;DHT22;8717;53.588;10.176;2023-07-29T11:30:06;26.90;99.60
17202;DHT22;8717;53.588;10.176;2023-07-29T11:32:34;27.00;98.70
17202;DHT22;8717;53.588;10.176;2023-07-29T11:35:04;26.90;99.60
17202;DHT22;8717;53.588;10.176;2023-07-29T11:37:34;26.90;98.20
17202;DHT22;8717;53.588;10.176;2023-07-29T11:40:01;27.00;98.40
17202;DHT22;8717;53.588;10.176;2023-07-29T11:42:30;26.90;98.80
17202;DHT22;8717;53.588;10.176;2023-07-29T11:44:58;26.90;98.70
17202;DHT22;8717;53.588;10.176;2023-07-29T11:47:26;26.80;98.70
17202;DHT22;8717;53.588;10.176;2023-07-29T11:49:53;26.70;98.70
17202;DHT22;8717;53.588;10.176;2023-07-29T11:52:20;26.60;98.80
17202;DHT22;8717;53.588;10.176;2023-07-29T11:54:49;26.40;98.70
17202;DHT22;8717;53.588;10.176;2023-07-29T11:57:16;26.20;98.90
17202;DHT22;8717;53.588;10.176;2023-07-29T11:59:44;26.10;99.90
17202;DHT22;8717;53.588;10.176;2023-07-29T12:02:12;26.00;99.90
17202;DHT22;8717;53.588;10.176;2023-07-29T12:04:40;26.00;99.90
17202;DHT22;8717;53.588;10.176;2023-07-29T12:07:07;26.10;99.90
17202;DHT22;8717;53.588;10.176;2023-07-29T12:09:34;26.20;99.90
17202;DHT22;8717;53.588;10.176;2023-07-29T12:12:03;26.50;99.90
17202;DHT22;8717;53.588;10.176;2023-07-29T12:14:30;26.80;99.90
17202;DHT22;8717;53.588;10.176;2023-07-29T12:17:00;27.10;99.90
17202;DHT22;8717;53.588;10.176;2023-07-29T12:19:32;27.50;98.90
17202;DHT22;8717;53.588;10.176;2023-07-29T12:21:59;27.80;97.60
17202;DHT22;8717;53.588;10.176;2023-07-29T12:24:26;28.00;97.30
17202;DHT22;8717;53.588;10.176;2023-07-29T12:26:53;28.20;96.70
17202;DHT22;8717;53.588;10.176;2023-07-29T12:29:21;28.30;96.00
17202;DHT22;8717;53.588;10.176;2023-07-29T12:31:49;28.40;95.60
17202;DHT22;8717;53.588;10.176;2023-07-29T12:34:18;28.40;96.30
17202;DHT22;8717;53.588;10.176;2023-07-29T12:36:47;28.50;95.40
17202;DHT22;8717;53.588;10.176;2023-07-29T12:39:18;28.60;95.40
17202;DHT22;8717;53.588;10.176;2023-07-29T12:41:45;28.70;93.90
17202;DHT22;8717;53.588;10.176;2023-07-29T12:44:11;28.90;93.30
17202;DHT22;8717;53.588;10.176;2023-07-29T12:46:39;29.00;92.80
17202;DHT22;8717;53.588;10.176;2023-07-29T12:49:06;29.00;92.70
17202;DHT22;8717;53.588;10.176;2023-07-29T12:51:33;29.10;92.80
17202;DHT22;8717;53.588;10.176;2023-07-29T12:54:00;29.20;92.70
17202;DHT22;8717;53.588;10.176;2023-07-29T12:56:26;29.30;92.10
17202;DHT22;8717;53.588;10.176;2023-07-29T12:58:53;29.30;92.30
17202;DHT22;8717;53.588;10.176;2023-07-29T13:01:20;29.40;92.10
17202;DHT22;8717;53.588;10.176;2023-07-29T13:03:48;29.50;92.00
17202;DHT22;8717;53.588;10.176;2023-07-29T13:06:15;29.50;91.30
17202;DHT22;8717;53.588;10.176;2023-07-29T13:08:42;29.60;91.50
17202;DHT22;8717;53.588;10.176;2023-07-29T13:11:09;29.60;90.80
17202;DHT22;8717;53.588;10.176;2023-07-29T13:13:36;29.60;90.40
17202;DHT22;8717;53.588;10.176;2023-07-29T13:16:03;29.50;88.90
17202;DHT22;8717;53.588;10.176;2023-07-29T13:18:30;29.50;88.40
17202;DHT22;8717;53.588;10.176;2023-07-29T13:20:58;29.40;88.90
17202;DHT22;8717;53.588;10.176;2023-07-29T13:23:26;29.30;89.30
17202;DHT22;8717;53.588;10.176;2023-07-29T13:25:53;29.20;90.00
17202;DHT22;8717;53.588;10.176;2023-07-29T13:28:20;29.20;89.90
17202;DHT22;8717;53.588;10.176;2023-07-29T13:30:46;29.10;90.10
17202;DHT22;8717;53.588;10.176;2023-07-29T13:33:13;29.20;90.70
17202;DHT22;8717;53.588;10.176;2023-07-29T13:35:40;29.30;89.80
17202;DHT22;8717;53.588;10.176;2023-07-29T13:38:08;29.30;88.60
17202;DHT22;8717;53.588;10.176;2023-07-29T13:40:34;29.30;88.70
17202;DHT22;8717;53.588;10.176;2023-07-29T13:43:01;29.20;88.00
17202;DHT22;8717;53.588;10.176;2023-07-29T13:45:28;29.10;87.80
17202;DHT22;8717;53.588;10.176;2023-07-29T13:47:55;28.90;89.70
17202;DHT22;8717;53.588;10.176;2023-07-29T13:50:21;28.70;89.10
17202;DHT22;8717;53.588;10.176;2023-07-29T13:52:48;28.60;88.40
17202;DHT22;8717;53.588;10.176;2023-07-29T13:55:16;28.40;88.50
17202;DHT22;8717;53.588;10.176;2023-07-29T13:57:43;28.40;89.90
17202;DHT22;8717;53.588;10.176;2023-07-29T14:00:10;28.30;90.30
17202;DHT22;8717;53.588;10.176;2023-07-29T14:02:39;28.20;90.30
17202;DHT22;8717;53.588;10.176;2023-07-29T14:05:06;28.20;90.60
17202;DHT22;8717;53.588;10.176;2023-07-29T14:07:33;28.20;90.40
17202;DHT22;8717;53.588;10.176;2023-07-29T14:10:00;28.20;90.10
17202;DHT22;8717;53.588;10.176;2023-07-29T14:12:28;28.20;90.00
17202;DHT22;8717;53.588;10.176;2023-07-29T14:14:55;28.20;90.00
17202;DHT22;8717;53.588;10.176;2023-07-29T14:17:21;28.20;90.30
17202;DHT22;8717;53.588;10.176;2023-07-29T14:19:48;28.20;90.20
17202;DHT22;8717;53.588;10.176;2023-07-29T14:22:14;28.20;90.50
17202;DHT22;8717;53.588;10.176;2023-07-29T14:24:41;28.20;90.20
17202;DHT22;8717;53.588;10.176;2023-07-29T14:27:08;28.20;90.00
17202;DHT22;8717;53.588;10.176;2023-07-29T14:29:36;28.20;90.20
17202;DHT22;8717;53.588;10.176;2023-07-29T14:32:03;28.20;90.30
17202;DHT22;8717;53.588;10.176;2023-07-29T14:34:30;28.10;90.50
17202;DHT22;8717;53.588;10.176;2023-07-29T14:36:57;28.10;90.30
17202;DHT22;8717;53.588;10.176;2023-07-29T14:39:23;28.10;90.30
17202;DHT22;8717;53.588;10.176;2023-07-29T14:41:50;28.00;90.30
17202;DHT22;8717;53.588;10.176;2023-07-29T14:44:16;27.90;90.50
17202;DHT22;8717;53.588;10.176;2023-07-29T14:46:44;27.90;90.80
17202;DHT22;8717;53.588;10.176;2023-07-29T14:49:11;27.90;91.00
17202;DHT22;8717;53.588;10.176;2023-07-29T14:51:38;28.00;90.60
17202;DHT22;8717;53.588;10.176;2023-07-29T14:54:04;28.00;90.80
17202;DHT22;8717;53.588;10.176;2023-07-29T14:56:31;27.90;90.70
17202;DHT22;8717;53.588;10.176;2023-07-29T14:58:58;27.90;90.60
17202;DHT22;8717;53.588;10.176;2023-07-29T15:01:25;27.90;90.40
17202;DHT22;8717;53.588;10.176;2023-07-29T15:03:52;27.70;90.70
17202;DHT22;8717;53.588;10.176;2023-07-29T15:06:19;27.70;90.40
17202;DHT22;8717;53.588;10.176;2023-07-29T15:08:46;27.60;90.50
17202;DHT22;8717;53.588;10.176;2023-07-29T15:11:12;27.50;90.50
17202;DHT22;8717;53.588;10.176;2023-07-29T15:13:39;27.50;90.40
17202;DHT22;8717;53.588;10.176;2023-07-29T15:16:06;27.50;90.40
17202;DHT22;8717;53.588;10.176;2023-07-29T15:18:32;27.40;90.10
17202;DHT22;8717;53.588;10.176;2023-07-29T15:21:01;27.30;90.20
17202;DHT22;8717;53.588;10.176;2023-07-29T15:23:28;27.30;90.20
17202;DHT22;8717;53.588;10.176;2023-07-29T15:25:55;27.20;90.30
17202;DHT22;8717;53.588;10.176;2023-07-29T15:28:21;27.10;90.70
17202;DHT22;8717;53.588;10.176;2023-07-29T15:30:48;27.10;90.70
17202;DHT22;8717;53.588;10.176;2023-07-29T15:33:15;27.10;91.00